Time;durP1;ratioP1;P1;durP2;ratioP2;P2;SDS_P1;SDS_P2;PMS_P1;PMS_P2;Temp;Humidity;BMP_temperature;BMP_pressure;BME280_temperature;BME280_humidity;BME280_pressure;Samples;Min_cycle;Max_cycle;Signal;HPM_P1;HPM_P2
2022/09/12 00:01:59;;;;;;;0.95;0.40;;;17.30;56.60;;;;;;4113462;28;20137;-42
2022/09/12 00:04:22;;;;;;;1.52;0.40;;;17.30;56.60;;;;;;4112803;28;20683;-48
2022/09/12 00:06:44;;;;;;;1.40;0.77;;;17.30;56.50;;;;;;4115753;28;20051;-42
2022/09/12 00:09:11;;;;;;;4.78;0.77;;;17.30;56.40;;;;;;4111915;28;20034;-46
2022/09/12 00:11:36;;;;;;;0.57;0.55;;;17.40;56.40;;;;;;4106617;28;20133;-45
2022/09/12 00:14:01;;;;;;;0.47;0.30;;;17.40;56.20;;;;;;4114105;28;20494;-43
2022/09/12 00:16:23;;;;;;;;;;;17.40;56.10;;;;;;4112257;28;20026;-45
2022/09/12 00:18:47;;;;;;;1.55;0.47;;;17.40;56.20;;;;;;4113641;28;19957;-44
2022/09/12 00:21:09;;;;;;;2.67;0.73;;;17.40;56.30;;;;;;4114421;28;20145;-47
2022/09/12 00:23:32;;;;;;;0.80;0.50;;;17.50;56.20;;;;;;4115170;28;20046;-43
2022/09/12 00:25:55;;;;;;;0.60;0.60;;;17.50;56.20;;;;;;4114009;28;20476;-48
2022/09/12 00:28:18;;;;;;;0.55;0.40;;;17.50;56.20;;;;;;4113746;28;20072;-44
2022/09/12 00:30:46;;;;;;;1.80;0.60;;;17.50;56.80;;;;;;4110236;28;20423;-46
2022/09/12 00:33:09;;;;;;;0.57;0.50;;;17.50;56.20;;;;;;4130492;28;20303;-41
2022/09/12 00:35:32;;;;;;;2.78;0.80;;;17.50;56.10;;;;;;4136613;28;20033;-42
2022/09/12 00:37:54;;;;;;;3.13;0.60;;;17.60;56.10;;;;;;4133332;28;20845;-49
2022/09/12 00:40:17;;;;;;;1.17;0.55;;;17.60;56.20;;;;;;4131194;28;20120;-43
2022/09/12 00:42:40;;;;;;;1.13;0.50;;;17.60;56.10;;;;;;4133058;28;21524;-44
2022/09/12 00:45:03;;;;;;;2.50;0.80;;;17.70;56.20;;;;;;4122464;28;20046;-49
2022/09/12 00:47:28;;;;;;;0.65;0.60;;;17.70;55.80;;;;;;4126079;28;20121;-48
2022/09/12 00:50:11;;;;;;;0.40;0.40;;;17.70;55.50;;;;;;4128035;28;20045;-45
2022/09/12 00:52:52;;;;;;;0.40;0.40;;;17.70;55.20;;;;;;4135798;28;20038;-42
2022/09/12 00:55:38;;;;;;;3.72;1.08;;;17.70;55.00;;;;;;4140353;28;20525;-42
2022/09/12 00:58:22;;;;;;;9.75;1.98;;;17.70;55.50;;;;;;4128530;28;20076;-45
2022/09/12 01:00:46;;;;;;;15.52;2.03;;;17.70;56.40;;;;;;4134952;28;20049;-43
2022/09/12 01:03:14;;;;;;;2.40;1.13;;;17.80;55.60;;;;;;4128476;28;20045;-42
2022/09/12 01:05:43;;;;;;;2.38;0.95;;;17.80;55.00;;;;;;4128848;28;20038;-42
2022/09/12 01:08:06;;;;;;;1.85;0.80;;;17.80;54.40;;;;;;4134197;28;20551;-42
2022/09/12 01:10:29;;;;;;;1.02;0.68;;;17.80;53.80;;;;;;4137343;28;20088;-44
2022/09/12 01:12:52;;;;;;;1.98;0.90;;;17.70;53.60;;;;;;4136629;28;20046;-43
2022/09/12 01:15:14;;;;;;;0.65;0.65;;;17.70;53.60;;;;;;4134168;28;20471;-42
2022/09/12 01:18:05;;;;;;;2.92;0.90;;;17.70;53.20;;;;;;4135534;28;20201;-42
2022/09/12 01:20:46;;;;;;;1.92;0.90;;;17.70;52.80;;;;;;4134982;28;20049;-42
2022/09/12 01:23:38;;;;;;;2.15;0.80;;;17.70;53.30;;;;;;4131149;28;20099;-40
2022/09/12 01:26:25;;;;;;;1.17;0.63;;;17.80;53.70;;;;;;4134762;28;20041;-41
2022/09/12 01:29:07;;;;;;;4.00;0.77;;;17.80;54.00;;;;;;4132802;28;20041;-44
2022/09/12 01:31:46;;;;;;;1.65;0.50;;;17.90;54.20;;;;;;4133101;28;20042;-41
2022/09/12 01:34:27;;;;;;;1.63;0.82;;;17.90;54.40;;;;;;4134718;28;20060;-44
2022/09/12 01:36:58;;;;;;;3.78;0.70;;;18.00;54.60;;;;;;4133366;28;20034;-44
2022/09/12 01:39:30;;;;;;;2.85;1.23;;;18.00;54.80;;;;;;4129546;28;20404;-44
2022/09/12 01:42:15;;;;;;;0.40;0.40;;;18.00;54.90;;;;;;4129733;28;20508;-45
2022/09/12 01:44:58;;;;;;;2.58;0.60;;;18.10;55.00;;;;;;4126098;28;20034;-45
2022/09/12 01:47:40;;;;;;;2.75;0.50;;;18.10;55.20;;;;;;4113007;28;20562;-43
2022/09/12 01:50:19;;;;;;;0.93;0.50;;;18.10;55.20;;;;;;4124861;28;20050;-41
2022/09/12 01:52:53;;;;;;;0.95;0.50;;;18.10;55.10;;;;;;4126218;28;20054;-42
2022/09/12 01:55:25;;;;;;;0.57;0.30;;;18.20;55.10;;;;;;4123395;28;20867;-41
2022/09/12 01:58:14;;;;;;;0.57;0.50;;;18.20;55.10;;;;;;4131114;28;20561;-46
2022/09/12 02:00:43;;;;;;;2.28;0.60;;;18.30;55.10;;;;;;4129787;28;20049;-41
2022/09/12 02:03:16;;;;;;;0.80;0.63;;;18.30;54.80;;;;;;4125528;28;20041;-43
2022/09/12 02:06:01;;;;;;;4.65;0.73;;;18.30;55.10;;;;;;4129412;28;20072;-41
2022/09/12 02:08:32;;;;;;;0.70;0.40;;;18.30;55.10;;;;;;4134068;28;20439;-39
2022/09/12 02:11:07;;;;;;;1.45;0.50;;;18.40;55.20;;;;;;4134065;28;20052;-44
2022/09/12 02:13:55;;;;;;;2.83;0.80;;;18.30;55.30;;;;;;4136480;28;20122;-41
2022/09/12 02:16:18;;;;;;;2.63;0.60;;;18.40;55.30;;;;;;4127360;28;20038;-41
2022/09/12 02:18:46;;;;;;;0.70;0.40;;;18.40;55.20;;;;;;4125591;28;20037;-43
2022/09/12 02:21:09;;;;;;;2.45;0.40;;;18.40;55.20;;;;;;4124126;28;20041;-41
2022/09/12 02:23:35;;;;;;;1.65;0.65;;;18.50;55.30;;;;;;4129030;28;20227;-41
2022/09/12 02:26:22;;;;;;;2.83;0.73;;;18.50;54.80;;;;;;4130613;28;20046;-46
2022/09/12 02:28:45;;;;;;;2.90;0.73;;;18.50;54.50;;;;;;4128739;28;20116;-44
2022/09/12 02:31:44;;;;;;;1.55;0.35;;;18.40;54.30;;;;;;4131895;28;20574;-42
2022/09/12 02:34:13;;;;;;;0.82;0.60;;;18.50;54.20;;;;;;4091727;28;20038;-46
2022/09/12 02:37:14;;;;;;;2.13;0.70;;;18.50;54.20;;;;;;4111973;28;20524;-47
2022/09/12 02:39:37;;;;;;;1.85;0.50;;;18.50;54.20;;;;;;4116016;28;20423;-40
2022/09/12 02:42:02;;;;;;;4.68;0.88;;;18.50;53.90;;;;;;4114468;28;20038;-45
2022/09/12 02:44:26;;;;;;;2.30;0.70;;;18.50;53.80;;;;;;4114822;28;20041;-42
2022/09/12 02:46:56;;;;;;;1.67;0.60;;;18.50;53.70;;;;;;4110814;28;20531;-42
2022/09/12 02:49:19;;;;;;;3.72;0.85;;;18.50;53.50;;;;;;4111771;28;20038;-42
2022/09/12 02:51:42;;;;;;;3.92;0.50;;;18.50;53.40;;;;;;4117561;28;20072;-44
2022/09/12 02:54:06;;;;;;;1.52;0.80;;;18.60;53.40;;;;;;4114472;28;20097;-41
2022/09/12 02:56:30;;;;;;;1.48;0.82;;;18.60;53.50;;;;;;4116573;28;20044;-41
2022/09/12 02:58:55;;;;;;;2.35;0.43;;;18.60;53.20;;;;;;4117638;28;20339;-44
2022/09/12 03:01:39;;;;;;;2.65;0.60;;;18.60;53.30;;;;;;4115115;28;20249;-41
2022/09/12 03:04:13;;;;;;;1.65;0.50;;;18.60;53.20;;;;;;4108345;28;20616;-41
2022/09/12 03:06:58;;;;;;;;;;;18.70;53.20;;;;;;4114251;28;20483;-41
2022/09/12 03:09:50;;;;;;;2.00;0.50;;;18.70;53.10;;;;;;4114948;28;19924;-40
2022/09/12 03:12:27;;;;;;;2.65;0.77;;;18.70;53.00;;;;;;4108144;28;20742;-42
2022/09/12 03:15:26;;;;;;;7.80;0.75;;;18.80;53.80;;;;;;4114527;28;20774;-40
2022/09/12 03:18:05;;;;;;;1.75;0.70;;;18.80;55.20;;;;;;4108764;28;20436;-43
2022/09/12 03:20:52;;;;;;;1.70;0.63;;;18.90;55.70;;;;;;4107723;28;20253;-42
2022/09/12 03:23:29;;;;;;;1.80;0.50;;;19.00;55.20;;;;;;4106369;28;20042;-42
2022/09/12 03:26:05;;;;;;;3.38;0.60;;;19.00;55.00;;;;;;4112960;28;20420;-41
2022/09/12 03:28:28;;;;;;;6.78;1.88;;;19.10;55.20;;;;;;4113172;28;20663;-41
2022/09/12 03:30:53;;;;;;;3.13;1.00;;;19.20;55.50;;;;;;4115943;28;20038;-42
2022/09/12 03:33:18;;;;;;;2.53;0.57;;;19.20;55.40;;;;;;4123627;28;20284;-43
2022/09/12 03:35:41;;;;;;;2.85;1.00;;;19.30;55.40;;;;;;4129024;28;20044;-47
2022/09/12 03:38:06;;;;;;;1.45;0.75;;;19.40;55.20;;;;;;4131691;28;20530;-42
2022/09/12 03:40:29;;;;;;;2.38;0.68;;;19.40;55.10;;;;;;4127030;28;20099;-41
2022/09/12 03:42:52;;;;;;;1.02;0.70;;;19.50;55.00;;;;;;4130968;28;20344;-46
2022/09/12 03:45:15;;;;;;;1.33;0.68;;;19.60;54.50;;;;;;4131858;28;20042;-41
2022/09/12 03:47:38;;;;;;;4.00;1.17;;;19.60;54.30;;;;;;4127153;28;20570;-39
2022/09/12 03:50:01;;;;;;;1.60;0.70;;;19.70;53.60;;;;;;4126666;28;20050;-43
2022/09/12 03:52:23;;;;;;;3.50;0.60;;;19.70;53.70;;;;;;4128828;28;21314;-43
2022/09/12 03:54:46;;;;;;;7.82;1.20;;;19.80;53.90;;;;;;4129810;28;20046;-42
2022/09/12 03:57:09;;;;;;;0.98;0.65;;;19.80;54.10;;;;;;4126831;28;20496;-43
2022/09/12 03:59:32;;;;;;;2.85;0.80;;;19.90;53.90;;;;;;4124636;28;20622;-42
2022/09/12 04:01:55;;;;;;;3.50;1.02;;;19.90;53.90;;;;;;4114968;28;20113;-42
2022/09/12 04:04:17;;;;;;;1.67;0.90;;;20.00;54.20;;;;;;4121849;28;20073;-42
2022/09/12 04:06:41;;;;;;;6.55;0.60;;;20.00;54.20;;;;;;4115832;28;20035;-44
2022/09/12 04:09:04;;;;;;;;;;;20.00;54.20;;;;;;4122359;28;20547;-45
2022/09/12 04:11:26;;;;;;;1.23;0.55;;;20.10;54.40;;;;;;4116184;28;20477;-48
2022/09/12 04:13:49;;;;;;;1.67;0.60;;;20.10;54.40;;;;;;4113842;28;20049;-43
2022/09/12 04:16:13;;;;;;;2.78;0.80;;;20.20;54.40;;;;;;4104555;28;20106;-43
2022/09/12 04:18:35;;;;;;;;;;;20.20;54.40;;;;;;4114707;28;20931;-42
2022/09/12 04:20:58;;;;;;;2.47;1.05;;;20.20;54.50;;;;;;4119141;28;19921;-44
2022/09/12 04:23:21;;;;;;;4.97;0.73;;;20.30;54.40;;;;;;4113741;28;20412;-43
2022/09/12 04:25:43;;;;;;;2.25;0.45;;;20.40;54.20;;;;;;4117549;28;20037;-42
2022/09/12 04:28:06;;;;;;;3.60;0.70;;;20.50;54.10;;;;;;4118334;28;20056;-44
2022/09/12 04:30:29;;;;;;;10.70;1.08;;;20.50;54.10;;;;;;4120060;28;20044;-51
2022/09/12 04:32:51;;;;;;;0.73;0.50;;;20.50;53.60;;;;;;4125673;28;20455;-47
2022/09/12 04:35:14;;;;;;;1.70;0.60;;;20.50;54.10;;;;;;4128383;28;20046;-47
2022/09/12 04:37:36;;;;;;;1.85;0.60;;;20.50;53.50;;;;;;4128298;28;20556;-45
2022/09/12 04:39:59;;;;;;;1.83;0.55;;;20.50;53.70;;;;;;4128328;28;20135;-46
2022/09/12 04:42:22;;;;;;;1.42;0.50;;;20.60;53.70;;;;;;4130788;28;20605;-46
2022/09/12 04:44:45;;;;;;;2.13;0.57;;;20.60;53.70;;;;;;4131356;28;20478;-47
2022/09/12 04:47:08;;;;;;;2.30;0.55;;;20.60;53.70;;;;;;4123434;28;20046;-44
2022/09/12 04:49:31;;;;;;;3.80;0.60;;;20.70;53.60;;;;;;4122914;28;20465;-47
2022/09/12 04:51:54;;;;;;;0.68;0.50;;;20.70;53.60;;;;;;4123049;28;20056;-46
2022/09/12 04:54:18;;;;;;;2.70;0.63;;;20.70;53.70;;;;;;4112644;28;20041;-46
2022/09/12 04:56:44;;;;;;;2.58;0.50;;;20.80;53.60;;;;;;4118831;28;20569;-45
2022/09/12 04:59:07;;;;;;;0.70;0.40;;;20.80;53.40;;;;;;4115054;28;20559;-44
2022/09/12 05:01:30;;;;;;;1.55;0.82;;;20.80;53.30;;;;;;4121252;28;20527;-46
2022/09/12 05:03:53;;;;;;;3.53;0.70;;;20.80;53.30;;;;;;4116536;28;20263;-49
2022/09/12 05:06:19;;;;;;;0.97;0.40;;;20.80;53.30;;;;;;4119495;28;20053;-45
2022/09/12 05:08:42;;;;;;;0.73;0.50;;;20.80;53.10;;;;;;4113668;28;20276;-50
2022/09/12 05:11:15;;;;;;;1.02;0.50;;;20.90;53.10;;;;;;4121760;28;20582;-44
2022/09/12 05:13:37;;;;;;;2.05;0.50;;;20.90;53.20;;;;;;4112537;28;20416;-45
2022/09/12 05:16:02;;;;;;;1.48;0.75;;;20.90;53.10;;;;;;4121143;28;20503;-45
2022/09/12 05:18:25;;;;;;;0.98;0.55;;;21.00;52.90;;;;;;4129027;28;20038;-45
2022/09/12 05:20:48;;;;;;;1.13;0.47;;;21.10;52.70;;;;;;4127502;28;20140;-44
2022/09/12 05:23:10;;;;;;;1.40;0.50;;;21.10;52.60;;;;;;4129842;28;20372;-48
2022/09/12 05:25:33;;;;;;;1.60;0.40;;;21.10;52.80;;;;;;4123956;28;20033;-51
2022/09/12 05:27:56;;;;;;;1.58;0.32;;;21.10;52.90;;;;;;4121054;28;20902;-46
2022/09/12 05:30:18;;;;;;;1.27;0.40;;;21.10;52.80;;;;;;4128623;28;20073;-47
2022/09/12 05:32:41;;;;;;;2.60;0.50;;;21.20;52.80;;;;;;4132443;28;20493;-46
2022/09/12 05:35:04;;;;;;;1.33;0.40;;;21.20;52.70;;;;;;4138834;28;20044;-45
2022/09/12 05:37:27;;;;;;;0.40;0.40;;;21.20;52.80;;;;;;4141333;28;20046;-44
2022/09/12 05:39:51;;;;;;;1.38;0.43;;;21.20;52.70;;;;;;4141652;28;20529;-47
2022/09/12 05:42:13;;;;;;;5.15;0.68;;;21.20;52.80;;;;;;4142774;28;20051;-47
2022/09/12 05:44:36;;;;;;;2.25;0.50;;;21.20;52.70;;;;;;4140626;28;20169;-47
2022/09/12 05:46:59;;;;;;;1.63;0.60;;;21.20;51.90;;;;;;4141622;28;20064;-42
2022/09/12 05:49:21;;;;;;;6.10;0.90;;;21.10;51.40;;;;;;4131183;28;20050;-42
2022/09/12 05:51:45;;;;;;;4.05;0.77;;;21.10;51.20;;;;;;4131231;28;20085;-46
2022/09/12 05:54:11;;;;;;;1.42;0.85;;;21.00;52.20;;;;;;4130915;28;20115;-46
2022/09/12 05:56:39;;;;;;;7.85;0.98;;;21.00;51.90;;;;;;4129480;28;20511;-43
2022/09/12 05:59:05;;;;;;;4.70;0.88;;;21.00;51.90;;;;;;4115708;28;20136;-45
2022/09/12 06:01:29;;;;;;;1.00;0.50;;;21.10;52.00;;;;;;4124187;28;20085;-43
2022/09/12 06:03:53;;;;;;;0.95;0.60;;;21.10;52.00;;;;;;4134345;28;20366;-43
2022/09/12 06:06:19;;;;;;;2.95;0.60;;;21.20;52.00;;;;;;4134936;28;20069;-47
2022/09/12 06:08:44;;;;;;;1.05;0.52;;;21.20;52.00;;;;;;4128295;28;20550;-42
2022/09/12 06:11:08;;;;;;;1.08;0.57;;;21.20;52.00;;;;;;4140968;28;20065;-46
2022/09/12 06:13:44;;;;;;;1.63;0.55;;;21.20;52.10;;;;;;4132316;28;20123;-42
2022/09/12 06:16:09;;;;;;;13.40;0.77;;;21.30;52.20;;;;;;4133918;28;20542;-46
2022/09/12 06:18:33;;;;;;;3.55;0.47;;;21.30;52.10;;;;;;4129965;28;20486;-44
2022/09/12 06:20:55;;;;;;;2.08;0.50;;;21.30;52.20;;;;;;4130918;28;20033;-41
2022/09/12 06:23:18;;;;;;;0.85;0.40;;;21.30;52.30;;;;;;4131880;28;20047;-44
2022/09/12 06:25:47;;;;;;;5.43;1.00;;;21.40;52.20;;;;;;4140220;28;20460;-42
2022/09/12 06:28:09;;;;;;;3.58;0.57;;;21.30;52.20;;;;;;4130823;28;20034;-42
2022/09/12 06:30:32;;;;;;;2.25;0.43;;;21.30;52.50;;;;;;4116819;28;20400;-44
2022/09/12 06:32:55;;;;;;;3.63;0.63;;;21.30;52.40;;;;;;4115337;28;20051;-44
2022/09/12 06:35:18;;;;;;;0.80;0.55;;;21.30;52.60;;;;;;4106997;28;20046;-45
2022/09/12 06:37:44;;;;;;;2.53;0.60;;;21.30;52.40;;;;;;4107011;28;20085;-45
2022/09/12 06:40:08;;;;;;;0.57;0.50;;;21.30;52.50;;;;;;4109975;28;20526;-45
2022/09/12 06:42:32;;;;;;;2.00;0.60;;;21.30;52.60;;;;;;4099287;28;20061;-45
2022/09/12 06:44:54;;;;;;;2.13;0.52;;;21.20;52.50;;;;;;4109304;28;20052;-47
2022/09/12 06:47:17;;;;;;;1.75;0.30;;;21.20;52.40;;;;;;4109426;28;20062;-48
2022/09/12 06:49:39;;;;;;;0.40;0.40;;;21.20;52.40;;;;;;4104769;28;20405;-46
2022/09/12 06:52:02;;;;;;;3.90;0.65;;;21.20;52.50;;;;;;4104687;28;20046;-49
2022/09/12 06:54:25;;;;;;;1.13;0.30;;;21.20;52.50;;;;;;4106448;28;20046;-48
2022/09/12 06:56:48;;;;;;;0.43;0.43;;;21.20;52.50;;;;;;4108138;28;20109;-49
2022/09/12 06:59:11;;;;;;;4.57;0.50;;;21.20;52.60;;;;;;4107301;28;20046;-52
2022/09/12 07:01:33;;;;;;;0.40;0.30;;;21.20;52.60;;;;;;4107878;28;20026;-50
2022/09/12 07:03:59;;;;;;;1.70;0.40;;;21.10;52.60;;;;;;4105704;28;20053;-47
2022/09/12 07:06:28;;;;;;;5.50;0.47;;;21.10;52.70;;;;;;4107156;28;20038;-45
2022/09/12 07:08:51;;;;;;;1.30;0.50;;;21.10;52.90;;;;;;4110294;28;20066;-44
2022/09/12 07:11:16;;;;;;;1.80;0.50;;;21.10;53.00;;;;;;4106070;28;20081;-44
2022/09/12 07:13:40;;;;;;;8.88;0.70;;;21.10;53.10;;;;;;4091997;28;20068;-43
2022/09/12 07:16:04;;;;;;;1.02;0.43;;;21.10;53.10;;;;;;4101963;28;20449;-46
2022/09/12 07:18:26;;;;;;;;;;;21.10;52.50;;;;;;4101444;28;20058;-45
2022/09/12 07:20:49;;;;;;;3.17;0.63;;;21.10;52.40;;;;;;4104478;28;19921;-44
2022/09/12 07:25:22;;;;;;;4.22;1.05;;;21.00;52.10;;;;;;4920759;23;20029;-38
2022/09/12 07:27:45;;;;;;;3.17;1.00;;;21.00;52.80;;;;;;4137240;28;20038;-42
2022/09/12 07:30:07;;;;;;;5.47;0.80;;;21.00;52.60;;;;;;4140412;28;20068;-40
2022/09/12 07:32:30;;;;;;;1.65;0.43;;;21.00;52.80;;;;;;4138000;28;20038;-41
2022/09/12 07:34:53;;;;;;;2.53;0.73;;;21.00;52.80;;;;;;4136903;28;20125;-41
2022/09/12 07:37:16;;;;;;;1.10;0.30;;;21.00;52.80;;;;;;4144625;28;20041;-40
2022/09/12 07:39:38;;;;;;;7.38;0.52;;;20.90;52.70;;;;;;4133366;28;20131;-41
2022/09/12 07:42:01;;;;;;;8.20;0.80;;;20.90;52.80;;;;;;4135525;28;20044;-44
2022/09/12 07:44:25;;;;;;;6.22;1.13;;;20.90;52.90;;;;;;4114281;28;20038;-41
2022/09/12 07:46:49;;;;;;;18.45;1.65;;;20.90;53.20;;;;;;4136903;28;20037;-38
2022/09/12 07:49:12;;;;;;;3.72;2.53;;;20.90;51.00;;;;;;4139294;28;20034;-38
2022/09/12 07:51:35;;;;;;;5.10;2.20;;;20.80;50.20;;;;;;4133486;28;20404;-44
2022/09/12 07:53:58;;;;;;;6.68;2.53;;;20.80;50.00;;;;;;4131955;28;20582;-38
2022/09/12 07:56:21;;;;;;;4.00;2.20;;;20.80;50.10;;;;;;4138013;28;20393;-38
2022/09/12 07:58:44;;;;;;;7.75;2.63;;;20.70;50.10;;;;;;4130385;28;20651;-40
2022/09/12 08:01:13;;;;;;;4.85;2.25;;;20.70;50.30;;;;;;4134622;28;20099;-39
2022/09/12 08:03:36;;;;;;;5.82;2.53;;;20.70;50.50;;;;;;4134026;28;20482;-43
2022/09/12 08:06:06;;;;;;;4.00;1.73;;;20.60;50.70;;;;;;4123998;28;20469;-39
2022/09/12 08:08:29;;;;;;;4.30;2.10;;;20.60;50.80;;;;;;4111680;28;20043;-43
2022/09/12 08:10:58;;;;;;;6.65;2.10;;;20.50;50.90;;;;;;4122445;28;20410;-41
2022/09/12 08:13:21;;;;;;;4.45;1.65;;;20.50;51.10;;;;;;4124593;28;20037;-41
2022/09/12 08:15:43;;;;;;;4.20;1.90;;;20.50;51.20;;;;;;4121679;28;20438;-40
2022/09/12 08:18:06;;;;;;;4.72;1.70;;;20.50;51.30;;;;;;4124082;28;20046;-41
2022/09/12 08:20:29;;;;;;;9.75;1.73;;;20.50;51.30;;;;;;4111225;28;20104;-40
2022/09/12 08:22:53;;;;;;;3.33;1.63;;;20.50;51.40;;;;;;4126278;28;20520;-41
2022/09/12 08:25:15;;;;;;;3.15;1.25;;;20.50;51.50;;;;;;4127098;28;20296;-45
2022/09/12 08:27:38;;;;;;;2.72;1.20;;;20.50;51.60;;;;;;4129329;28;20050;-40
2022/09/12 08:30:01;;;;;;;3.28;1.35;;;20.50;51.60;;;;;;4132718;28;20639;-41
2022/09/12 08:32:23;;;;;;;2.17;1.33;;;20.50;51.60;;;;;;4126968;28;20093;-40
2022/09/12 08:34:46;;;;;;;2.25;1.25;;;20.50;51.70;;;;;;4126529;28;20049;-39
2022/09/12 08:37:09;;;;;;;3.67;1.40;;;20.50;51.70;;;;;;4127077;28;20038;-39
2022/09/12 08:39:35;;;;;;;2.13;1.23;;;20.50;51.70;;;;;;4124033;28;20445;-38
2022/09/12 08:42:03;;;;;;;3.28;1.17;;;20.50;51.80;;;;;;4127395;28;20556;-40
2022/09/12 08:44:50;;;;;;;2.42;1.38;;;20.50;51.80;;;;;;4120090;28;20050;-47
2022/09/12 08:47:38;;;;;;;1.88;1.10;;;20.50;51.80;;;;;;4123206;28;20039;-45
2022/09/12 08:50:14;;;;;;;2.22;0.90;;;20.50;51.90;;;;;;4122288;28;20046;-40
2022/09/12 08:52:49;;;;;;;1.52;0.95;;;20.40;51.80;;;;;;4129256;28;20049;-43
2022/09/12 08:55:37;;;;;;;3.03;1.33;;;20.40;51.80;;;;;;4116729;28;20466;-39
2022/09/12 08:58:06;;;;;;;3.13;1.23;;;20.40;51.90;;;;;;4127908;28;20038;-40
2022/09/12 09:00:39;;;;;;;1.30;0.90;;;20.40;51.80;;;;;;4127345;28;20613;-40
2022/09/12 09:03:12;;;;;;;5.88;1.80;;;20.40;51.80;;;;;;4122158;28;20603;-45
2022/09/12 09:05:37;;;;;;;3.10;1.45;;;20.40;52.40;;;;;;4129755;28;20037;-39
2022/09/12 09:08:38;;;;;;;5.72;1.38;;;20.40;52.80;;;;;;4126405;28;20042;-41
2022/09/12 09:11:16;;;;;;;10.77;1.30;;;20.40;53.20;;;;;;4132005;28;20084;-39
2022/09/12 09:16:38;;;;;;;7.38;1.33;;;20.40;53.70;;;;;;4132677;28;20273;-42
2022/09/12 09:19:14;;;;;;;7.55;1.70;;;20.40;54.10;;;;;;4127147;28;20057;-40
2022/09/12 09:22:00;;;;;;;5.60;1.08;;;20.40;54.30;;;;;;4113022;28;20389;-39
2022/09/12 09:24:36;;;;;;;10.75;1.27;;;20.40;54.30;;;;;;4132932;28;20044;-46
2022/09/12 09:27:25;;;;;;;4.55;1.15;;;20.40;54.50;;;;;;4127859;28;20061;-42
2022/09/12 09:29:55;;;;;;;2.45;0.93;;;20.40;54.60;;;;;;4127209;28;20041;-44
2022/09/12 09:32:25;;;;;;;2.60;0.55;;;20.40;54.70;;;;;;4128716;28;20099;-42
2022/09/12 09:34:47;;;;;;;1.77;0.90;;;20.30;54.60;;;;;;4127305;28;20030;-41
2022/09/12 09:37:30;;;;;;;1.10;0.80;;;20.30;54.80;;;;;;4130520;28;20481;-41
2022/09/12 09:40:21;;;;;;;2.45;0.95;;;20.30;54.80;;;;;;4126740;28;20050;-41
2022/09/12 09:43:08;;;;;;;1.88;0.80;;;20.30;54.90;;;;;;4127714;28;20129;-38
2022/09/12 09:45:31;;;;;;;1.75;1.00;;;20.30;54.90;;;;;;4130752;28;20044;-41
2022/09/12 09:47:54;;;;;;;7.32;1.45;;;20.30;54.90;;;;;;4135491;28;20121;-38
2022/09/12 09:50:18;;;;;;;3.53;1.60;;;20.30;54.90;;;;;;4132590;28;20528;-38
2022/09/12 09:52:40;;;;;;;;;;;20.30;54.80;;;;;;4136815;28;20029;-38
2022/09/12 09:55:04;;;;;;;9.90;1.70;;;20.30;54.90;;;;;;4134618;28;19913;-44
2022/09/12 09:57:39;;;;;;;7.22;1.85;;;20.30;55.10;;;;;;4114183;28;20490;-38
2022/09/12 10:00:29;;;;;;;9.40;2.25;;;20.30;55.10;;;;;;4131150;28;20130;-44
2022/09/12 10:03:13;;;;;;;6.13;1.52;;;20.40;55.20;;;;;;4134202;28;20034;-40
2022/09/12 10:05:50;;;;;;;3.25;1.35;;;20.40;55.30;;;;;;4122034;28;20488;-45
2022/09/12 10:08:21;;;;;;;6.60;1.70;;;20.40;55.30;;;;;;4134314;28;20048;-42
2022/09/12 10:11:02;;;;;;;25.05;3.42;;;20.40;55.60;;;;;;4135339;28;20341;-39
2022/09/12 10:13:56;;;;;;;43.95;5.88;;;20.40;54.90;;;;;;4131879;28;20041;-42
2022/09/12 10:16:18;;;;;;;50.33;5.28;;;20.30;55.10;;;;;;4130349;28;20035;-44
2022/09/12 10:18:42;;;;;;;29.90;4.13;;;20.40;55.30;;;;;;4131557;28;20053;-42
2022/09/12 10:21:16;;;;;;;;;;;20.40;55.40;;;;;;4129514;28;20143;-43
2022/09/12 10:23:40;;;;;;;38.00;4.18;;;20.40;55.80;;;;;;4130077;28;19917;-42
2022/09/12 10:26:09;;;;;;;10.38;2.90;;;20.40;55.90;;;;;;4130752;28;20050;-42
2022/09/12 10:28:50;;;;;;;12.25;2.72;;;20.40;55.80;;;;;;4130630;28;20415;-40
2022/09/12 10:31:27;;;;;;;25.17;3.08;;;20.40;55.80;;;;;;4131240;28;20421;-40
2022/09/12 10:33:51;;;;;;;16.77;2.97;;;20.40;56.00;;;;;;4135455;28;20037;-46
2022/09/12 10:36:15;;;;;;;10.35;2.08;;;20.40;55.90;;;;;;4133583;28;20477;-43
2022/09/12 10:38:37;;;;;;;9.15;2.28;;;20.40;55.80;;;;;;4132375;28;20033;-42
2022/09/12 10:41:09;;;;;;;11.95;2.50;;;20.40;55.90;;;;;;4128168;28;20179;-40
2022/09/12 10:43:37;;;;;;;8.27;2.28;;;20.40;55.90;;;;;;4132223;28;20139;-46
2022/09/12 10:46:27;;;;;;;5.80;2.25;;;20.40;56.00;;;;;;4134750;28;20034;-40
2022/09/12 10:49:11;;;;;;;10.20;2.15;;;20.40;55.80;;;;;;4129204;28;20550;-42
2022/09/12 10:51:33;;;;;;;5.37;1.63;;;20.40;55.80;;;;;;4129676;28;20038;-46
2022/09/12 10:54:04;;;;;;;3.17;1.55;;;20.40;55.90;;;;;;4128796;28;20039;-42
2022/09/12 10:56:38;;;;;;;8.75;1.83;;;20.40;56.00;;;;;;4130229;28;20515;-41
2022/09/12 10:59:06;;;;;;;6.93;1.70;;;20.40;55.80;;;;;;4112828;28;20388;-40
2022/09/12 11:01:52;;;;;;;10.63;1.80;;;20.40;56.00;;;;;;4132649;28;20045;-39
2022/09/12 11:04:32;;;;;;;12.48;1.83;;;20.40;55.90;;;;;;4126789;28;20541;-44
2022/09/12 11:07:16;;;;;;;2.60;1.40;;;20.40;56.10;;;;;;4130203;28;20259;-41
2022/09/12 11:09:51;;;;;;;4.97;1.65;;;20.40;56.20;;;;;;4132475;28;20044;-40
2022/09/12 11:12:13;;;;;;;5.00;1.48;;;20.40;56.20;;;;;;4125291;28;20057;-39
2022/09/12 11:14:51;;;;;;;8.77;1.73;;;20.40;56.10;;;;;;4133808;28;20084;-41
2022/09/12 11:17:47;;;;;;;6.07;1.42;;;20.40;56.00;;;;;;4134577;28;20044;-42
2022/09/12 11:20:35;;;;;;;3.85;1.40;;;20.40;56.00;;;;;;4128181;28;20050;-41
2022/09/12 11:23:25;;;;;;;2.22;1.15;;;20.40;55.90;;;;;;4129980;28;20055;-41
2022/09/12 11:26:09;;;;;;;2.83;1.15;;;20.40;56.00;;;;;;4134071;28;20476;-44
2022/09/12 11:28:47;;;;;;;5.40;1.50;;;20.40;55.90;;;;;;4131127;28;20544;-41
2022/09/12 11:31:47;;;;;;;3.53;1.40;;;20.40;56.10;;;;;;4130967;28;20048;-44
2022/09/12 11:34:13;;;;;;;4.85;1.23;;;20.40;56.00;;;;;;4135794;28;20041;-40
2022/09/12 11:37:07;;;;;;;9.50;1.50;;;20.40;56.00;;;;;;4128238;28;20460;-37
2022/09/12 11:39:39;;;;;;;5.28;1.30;;;20.40;56.00;;;;;;4127235;28;20050;-43
2022/09/12 11:42:04;;;;;;;2.70;1.30;;;20.30;56.10;;;;;;4127859;28;20034;-42
2022/09/12 11:44:32;;;;;;;1.73;1.35;;;20.40;56.10;;;;;;4123415;28;20038;-46
2022/09/12 11:46:54;;;;;;;2.97;1.35;;;20.40;56.00;;;;;;4130256;28;20034;-44
2022/09/12 11:49:30;;;;;;;2.50;1.05;;;20.30;56.00;;;;;;4124831;28;20096;-40
2022/09/12 11:51:56;;;;;;;2.83;1.10;;;20.40;55.90;;;;;;4130213;28;20045;-42
2022/09/12 11:54:40;;;;;;;3.75;1.20;;;20.40;55.60;;;;;;4130828;28;20061;-40
2022/09/12 11:57:27;;;;;;;3.97;1.35;;;20.30;55.20;;;;;;4129542;28;20050;-39
2022/09/12 11:59:55;;;;;;;2.75;0.90;;;20.30;55.20;;;;;;4130937;28;20458;-40
2022/09/12 12:02:26;;;;;;;2.95;1.17;;;20.30;55.20;;;;;;4132937;28;20034;-40
2022/09/12 12:05:15;;;;;;;1.45;0.80;;;20.30;54.70;;;;;;4136413;28;20149;-45
2022/09/12 12:07:50;;;;;;;2.97;0.98;;;20.30;54.70;;;;;;4128720;28;20485;-41
2022/09/12 12:10:35;;;;;;;3.97;1.10;;;20.20;54.80;;;;;;4131348;28;20132;-47
2022/09/12 12:13:01;;;;;;;2.47;0.80;;;20.20;54.80;;;;;;4121319;28;20371;-40
2022/09/12 12:15:25;;;;;;;4.57;1.45;;;20.20;54.90;;;;;;4127871;28;20531;-42
2022/09/12 12:18:01;;;;;;;3.90;0.90;;;20.20;54.90;;;;;;4126126;28;20030;-41
2022/09/12 12:20:24;;;;;;;2.80;1.27;;;20.20;55.00;;;;;;4126609;28;20049;-41
2022/09/12 12:22:54;;;;;;;3.25;1.08;;;20.10;55.00;;;;;;4131022;28;20544;-39
2022/09/12 12:25:16;;;;;;;4.13;0.98;;;20.10;55.20;;;;;;4127978;28;20057;-44
2022/09/12 12:27:47;;;;;;;1.98;0.90;;;20.10;55.30;;;;;;4127964;28;20065;-41
2022/09/12 12:30:29;;;;;;;0.95;0.70;;;20.10;55.30;;;;;;4122597;28;21295;-41
2022/09/12 12:32:58;;;;;;;1.42;0.95;;;20.10;55.30;;;;;;4099018;28;20037;-43
2022/09/12 12:35:40;;;;;;;2.25;0.88;;;20.00;55.30;;;;;;4122550;28;20044;-38
2022/09/12 12:38:24;;;;;;;3.28;1.00;;;20.00;55.30;;;;;;4123384;28;20098;-41
2022/09/12 12:40:46;;;;;;;2.33;1.17;;;20.00;55.30;;;;;;4128590;28;20559;-44
2022/09/12 12:43:33;;;;;;;4.05;0.93;;;20.00;55.40;;;;;;4127417;28;20053;-40
2022/09/12 12:46:05;;;;;;;8.55;1.27;;;20.00;55.70;;;;;;4122193;28;20100;-39
2022/09/12 12:48:31;;;;;;;5.00;1.45;;;20.00;55.80;;;;;;4130048;28;20057;-40
2022/09/12 12:50:53;;;;;;;3.03;0.93;;;19.90;55.60;;;;;;4127854;28;20496;-39
2022/09/12 12:53:18;;;;;;;3.28;0.80;;;20.00;55.60;;;;;;4128303;28;20048;-41
2022/09/12 12:55:43;;;;;;;2.55;1.13;;;19.90;55.50;;;;;;4128702;28;20046;-45
2022/09/12 12:58:22;;;;;;;1.73;0.70;;;19.90;55.40;;;;;;4129771;28;20113;-42
2022/09/12 13:00:46;;;;;;;0.98;0.82;;;19.90;55.50;;;;;;4131084;28;20092;-45
2022/09/12 13:03:31;;;;;;;2.53;0.88;;;19.90;55.50;;;;;;4123264;28;20034;-41
2022/09/12 13:05:57;;;;;;;;;;;19.80;55.50;;;;;;4129830;28;20038;-41